Pagrindinis puslapis
METAR-TAF:

METAR-TAF

Oro uostai :

Tuzla, Bosnija ir Hercegovina

platuma: 44-33N, ilguma: 018-42E, Aukštis: 306 m

Dabartinis oras

Ataskaita buvo paskelbta 28 minutes, ne 00:00 UTC
Vėjas 1 kt nuo kintamojo kryptimis
Temperatūra 3°C
Drėgmė 100%
Slėgis 1016 hPa
Matomumas 10 km arba daugiau
nėra debesų žemiau 1500 m ir nėra kamuolinių lietaus debesų

METAR: LQTZ 220000Z VRB01KT CAVOK 03/03 Q1016

Laikas: 02:28 (00:28 UTC)

Prognozė

Ataskaita buvo paskelbta 1 valandą ir 28 minutes, ne 23:00 UTC
Prognozė galioja nuo 22 metu 00 UTC su 22 metu 24 UTC
Vėjas 2 kt nuo kintamojo kryptimis
Matomumas 10 km arba daugiau
nėra debesų žemiau 1500 m ir nėra kamuolinių lietaus debesų
Tikimybė 30% :
Laikinai
nuo 22 metu 03 UTC su 22 metu 06 UTC
Matomumas: 3000 m
rūkana
Laikinai
nuo 22 metu 13 UTC su 22 metu 24 UTC
Vėjas 12 kt iš Rytų

TAF: LQTZ 212300Z 2200/2224 VRB02KT CAVOK TX14/2213Z TN00/2204Z PROB30 TEMPO 2203/2206 3000 BR TEMPO 2213/2224 09012KT

Orai ataskaitas ir orų prognozės (METAR, TAF).

turimą stotys yra geltonos ir raudonos taškus žemėlapyje.

Perkelti pele per norėdami pamatyti stoties vardą.

Tada spustelėkite, norėdami matyti oro stebėjimo ir prognozės.

Norėdami pakeisti žemėlapį: spustelėkite ant žalios mygtukų su juodo kryžiaus žemyn,; žalią mygtuką su brūkšneliu, jei norite nutolinti; arba žalių rodyklių gretimoms žemėlapius.


METAR-TAF: